sensor_id;sensor_type;location;lat;lon;timestamp;P1;durP1;ratioP1;P2;durP2;ratioP2
7899;SDS011;3995;50.856;4.404;2023-04-23T00:01:43;12.27;;;11.07;;
7899;SDS011;3995;50.856;4.404;2023-04-23T00:04:11;11.70;;;10.60;;
7899;SDS011;3995;50.856;4.404;2023-04-23T00:06:40;12.20;;;11.00;;
7899;SDS011;3995;50.856;4.404;2023-04-23T00:09:08;12.83;;;10.80;;
7899;SDS011;3995;50.856;4.404;2023-04-23T00:11:38;10.60;;;9.60;;
7899;SDS011;3995;50.856;4.404;2023-04-23T00:14:06;13.23;;;10.33;;
7899;SDS011;3995;50.856;4.404;2023-04-23T00:16:34;11.13;;;9.87;;
7899;SDS011;3995;50.856;4.404;2023-04-23T00:19:02;11.13;;;10.10;;
7899;SDS011;3995;50.856;4.404;2023-04-23T00:21:29;11.60;;;9.87;;
7899;SDS011;3995;50.856;4.404;2023-04-23T00:23:58;10.37;;;9.37;;
7899;SDS011;3995;50.856;4.404;2023-04-23T00:26:25;10.27;;;9.27;;
7899;SDS011;3995;50.856;4.404;2023-04-23T00:28:52;10.80;;;9.47;;
7899;SDS011;3995;50.856;4.404;2023-04-23T00:31:19;10.87;;;9.80;;
7899;SDS011;3995;50.856;4.404;2023-04-23T00:33:48;9.70;;;8.70;;
7899;SDS011;3995;50.856;4.404;2023-04-23T00:36:22;9.40;;;8.00;;
7899;SDS011;3995;50.856;4.404;2023-04-23T00:38:53;9.13;;;7.93;;
7899;SDS011;3995;50.856;4.404;2023-04-23T00:41:22;13.20;;;8.40;;
7899;SDS011;3995;50.856;4.404;2023-04-23T00:43:49;9.30;;;8.40;;
7899;SDS011;3995;50.856;4.404;2023-04-23T00:46:17;9.10;;;8.10;;
7899;SDS011;3995;50.856;4.404;2023-04-23T00:48:44;8.53;;;7.73;;
7899;SDS011;3995;50.856;4.404;2023-04-23T00:51:12;9.20;;;8.13;;
7899;SDS011;3995;50.856;4.404;2023-04-23T00:53:41;10.50;;;7.73;;
7899;SDS011;3995;50.856;4.404;2023-04-23T00:56:08;10.00;;;7.77;;
7899;SDS011;3995;50.856;4.404;2023-04-23T00:58:37;9.20;;;8.30;;
7899;SDS011;3995;50.856;4.404;2023-04-23T01:01:06;7.60;;;6.90;;
7899;SDS011;3995;50.856;4.404;2023-04-23T01:03:34;8.90;;;7.13;;
7899;SDS011;3995;50.856;4.404;2023-04-23T01:06:03;8.00;;;7.20;;
7899;SDS011;3995;50.856;4.404;2023-04-23T01:08:31;7.87;;;7.07;;
7899;SDS011;3995;50.856;4.404;2023-04-23T01:11:00;8.73;;;7.93;;
7899;SDS011;3995;50.856;4.404;2023-04-23T01:13:29;9.63;;;8.40;;
7899;SDS011;3995;50.856;4.404;2023-04-23T01:15:57;9.40;;;8.40;;
7899;SDS011;3995;50.856;4.404;2023-04-23T01:18:24;9.97;;;8.97;;
7899;SDS011;3995;50.856;4.404;2023-04-23T01:20:52;8.37;;;7.57;;
7899;SDS011;3995;50.856;4.404;2023-04-23T01:23:21;10.80;;;8.60;;
7899;SDS011;3995;50.856;4.404;2023-04-23T01:25:48;9.10;;;8.20;;
7899;SDS011;3995;50.856;4.404;2023-04-23T01:28:15;9.30;;;7.37;;
7899;SDS011;3995;50.856;4.404;2023-04-23T01:30:43;7.50;;;6.80;;
7899;SDS011;3995;50.856;4.404;2023-04-23T01:33:10;9.00;;;7.60;;
7899;SDS011;3995;50.856;4.404;2023-04-23T01:35:38;8.00;;;7.30;;
7899;SDS011;3995;50.856;4.404;2023-04-23T01:38:07;7.63;;;6.87;;
7899;SDS011;3995;50.856;4.404;2023-04-23T01:40:37;6.83;;;6.23;;
7899;SDS011;3995;50.856;4.404;2023-04-23T01:43:04;7.77;;;6.90;;
7899;SDS011;3995;50.856;4.404;2023-04-23T01:45:32;7.17;;;6.03;;
7899;SDS011;3995;50.856;4.404;2023-04-23T01:47:59;6.53;;;5.80;;
7899;SDS011;3995;50.856;4.404;2023-04-23T01:50:27;7.37;;;5.90;;
7899;SDS011;3995;50.856;4.404;2023-04-23T01:52:55;7.17;;;5.70;;
7899;SDS011;3995;50.856;4.404;2023-04-23T01:55:22;6.10;;;5.50;;
7899;SDS011;3995;50.856;4.404;2023-04-23T01:57:50;6.50;;;5.40;;
7899;SDS011;3995;50.856;4.404;2023-04-23T02:00:18;5.90;;;5.30;;
7899;SDS011;3995;50.856;4.404;2023-04-23T02:02:45;7.57;;;6.10;;
7899;SDS011;3995;50.856;4.404;2023-04-23T02:05:13;5.93;;;5.40;;
7899;SDS011;3995;50.856;4.404;2023-04-23T02:07:42;8.03;;;5.93;;
7899;SDS011;3995;50.856;4.404;2023-04-23T02:10:10;5.60;;;5.10;;
7899;SDS011;3995;50.856;4.404;2023-04-23T02:12:37;6.00;;;5.20;;
7899;SDS011;3995;50.856;4.404;2023-04-23T02:15:07;5.63;;;5.13;;
7899;SDS011;3995;50.856;4.404;2023-04-23T02:17:34;9.50;;;5.40;;
7899;SDS011;3995;50.856;4.404;2023-04-23T02:20:04;7.47;;;5.13;;
7899;SDS011;3995;50.856;4.404;2023-04-23T02:22:33;5.87;;;5.37;;
7899;SDS011;3995;50.856;4.404;2023-04-23T02:25:02;6.67;;;5.50;;
7899;SDS011;3995;50.856;4.404;2023-04-23T02:27:29;7.13;;;5.43;;
7899;SDS011;3995;50.856;4.404;2023-04-23T02:29:57;7.87;;;5.77;;
7899;SDS011;3995;50.856;4.404;2023-04-23T02:32:26;6.73;;;5.13;;
7899;SDS011;3995;50.856;4.404;2023-04-23T02:34:53;6.33;;;5.70;;
7899;SDS011;3995;50.856;4.404;2023-04-23T02:37:20;7.33;;;6.20;;
7899;SDS011;3995;50.856;4.404;2023-04-23T02:39:47;9.70;;;6.50;;
7899;SDS011;3995;50.856;4.404;2023-04-23T02:42:14;7.13;;;6.17;;
7899;SDS011;3995;50.856;4.404;2023-04-23T02:44:42;7.33;;;6.50;;
7899;SDS011;3995;50.856;4.404;2023-04-23T02:47:09;7.30;;;6.60;;
7899;SDS011;3995;50.856;4.404;2023-04-23T02:49:37;6.27;;;5.20;;
7899;SDS011;3995;50.856;4.404;2023-04-23T02:52:04;7.10;;;5.17;;
7899;SDS011;3995;50.856;4.404;2023-04-23T02:54:32;7.30;;;6.20;;
7899;SDS011;3995;50.856;4.404;2023-04-23T02:57:01;7.63;;;5.63;;
7899;SDS011;3995;50.856;4.404;2023-04-23T02:59:28;9.00;;;6.47;;
7899;SDS011;3995;50.856;4.404;2023-04-23T03:01:55;6.23;;;5.63;;
7899;SDS011;3995;50.856;4.404;2023-04-23T03:04:22;6.07;;;5.30;;
7899;SDS011;3995;50.856;4.404;2023-04-23T03:06:51;6.63;;;5.93;;
7899;SDS011;3995;50.856;4.404;2023-04-23T03:09:18;6.63;;;5.77;;
7899;SDS011;3995;50.856;4.404;2023-04-23T03:11:45;9.00;;;5.57;;
7899;SDS011;3995;50.856;4.404;2023-04-23T03:14:12;6.47;;;5.53;;
7899;SDS011;3995;50.856;4.404;2023-04-23T03:16:40;13.00;;;6.33;;
7899;SDS011;3995;50.856;4.404;2023-04-23T03:19:07;7.00;;;6.20;;
7899;SDS011;3995;50.856;4.404;2023-04-23T03:21:35;5.93;;;5.27;;
7899;SDS011;3995;50.856;4.404;2023-04-23T03:24:04;5.97;;;5.47;;
7899;SDS011;3995;50.856;4.404;2023-04-23T03:26:31;7.90;;;5.70;;
7899;SDS011;3995;50.856;4.404;2023-04-23T03:28:58;5.90;;;5.30;;
7899;SDS011;3995;50.856;4.404;2023-04-23T03:31:26;6.00;;;5.40;;
7899;SDS011;3995;50.856;4.404;2023-04-23T03:33:53;6.63;;;5.93;;
7899;SDS011;3995;50.856;4.404;2023-04-23T03:36:20;6.10;;;5.50;;
7899;SDS011;3995;50.856;4.404;2023-04-23T03:38:48;7.53;;;5.50;;
7899;SDS011;3995;50.856;4.404;2023-04-23T03:41:16;6.27;;;4.80;;
7899;SDS011;3995;50.856;4.404;2023-04-23T03:43:43;5.37;;;4.47;;
7899;SDS011;3995;50.856;4.404;2023-04-23T03:46:10;5.13;;;4.40;;
7899;SDS011;3995;50.856;4.404;2023-04-23T03:48:37;6.57;;;5.40;;
7899;SDS011;3995;50.856;4.404;2023-04-23T03:51:04;5.70;;;4.53;;
7899;SDS011;3995;50.856;4.404;2023-04-23T03:53:31;7.00;;;5.27;;
7899;SDS011;3995;50.856;4.404;2023-04-23T03:55:58;7.23;;;4.90;;
7899;SDS011;3995;50.856;4.404;2023-04-23T03:58:27;6.83;;;5.37;;
7899;SDS011;3995;50.856;4.404;2023-04-23T04:00:54;6.13;;;5.53;;
7899;SDS011;3995;50.856;4.404;2023-04-23T04:03:21;5.07;;;4.60;;
7899;SDS011;3995;50.856;4.404;2023-04-23T04:05:48;5.33;;;4.83;;
7899;SDS011;3995;50.856;4.404;2023-04-23T04:08:15;6.77;;;4.97;;
7899;SDS011;3995;50.856;4.404;2023-04-23T04:10:42;7.67;;;5.30;;
7899;SDS011;3995;50.856;4.404;2023-04-23T04:13:10;7.37;;;4.57;;
7899;SDS011;3995;50.856;4.404;2023-04-23T04:15:38;4.50;;;4.10;;
7899;SDS011;3995;50.856;4.404;2023-04-23T04:18:05;10.27;;;5.00;;
7899;SDS011;3995;50.856;4.404;2023-04-23T04:20:33;6.27;;;4.60;;
7899;SDS011;3995;50.856;4.404;2023-04-23T04:22:59;5.83;;;4.83;;
7899;SDS011;3995;50.856;4.404;2023-04-23T04:25:26;7.40;;;5.57;;
7899;SDS011;3995;50.856;4.404;2023-04-23T04:27:54;6.70;;;4.43;;
7899;SDS011;3995;50.856;4.404;2023-04-23T04:30:21;6.30;;;5.17;;
7899;SDS011;3995;50.856;4.404;2023-04-23T04:32:50;7.37;;;5.13;;
7899;SDS011;3995;50.856;4.404;2023-04-23T04:35:17;8.87;;;5.00;;
7899;SDS011;3995;50.856;4.404;2023-04-23T04:37:44;10.77;;;5.17;;
7899;SDS011;3995;50.856;4.404;2023-04-23T04:40:12;8.30;;;5.00;;
7899;SDS011;3995;50.856;4.404;2023-04-23T04:42:40;9.80;;;4.93;;
7899;SDS011;3995;50.856;4.404;2023-04-23T04:45:07;7.13;;;4.80;;
7899;SDS011;3995;50.856;4.404;2023-04-23T04:47:34;9.23;;;4.57;;
7899;SDS011;3995;50.856;4.404;2023-04-23T04:50:03;5.63;;;4.37;;
7899;SDS011;3995;50.856;4.404;2023-04-23T04:52:31;11.10;;;4.40;;
7899;SDS011;3995;50.856;4.404;2023-04-23T04:54:58;4.90;;;4.17;;
7899;SDS011;3995;50.856;4.404;2023-04-23T04:57:25;6.23;;;3.83;;
7899;SDS011;3995;50.856;4.404;2023-04-23T04:59:52;6.63;;;4.30;;
7899;SDS011;3995;50.856;4.404;2023-04-23T05:02:21;8.83;;;4.50;;
7899;SDS011;3995;50.856;4.404;2023-04-23T05:04:48;4.20;;;3.80;;
7899;SDS011;3995;50.856;4.404;2023-04-23T05:07:17;6.80;;;3.60;;
7899;SDS011;3995;50.856;4.404;2023-04-23T05:09:44;7.20;;;4.37;;
7899;SDS011;3995;50.856;4.404;2023-04-23T05:12:12;7.83;;;3.27;;
7899;SDS011;3995;50.856;4.404;2023-04-23T05:14:39;5.30;;;3.43;;
7899;SDS011;3995;50.856;4.404;2023-04-23T05:17:06;7.13;;;4.00;;
7899;SDS011;3995;50.856;4.404;2023-04-23T05:19:33;9.13;;;4.27;;
7899;SDS011;3995;50.856;4.404;2023-04-23T05:22:00;9.30;;;3.87;;
7899;SDS011;3995;50.856;4.404;2023-04-23T05:24:29;7.80;;;3.67;;
7899;SDS011;3995;50.856;4.404;2023-04-23T05:26:56;4.80;;;3.93;;
7899;SDS011;3995;50.856;4.404;2023-04-23T05:29:24;7.87;;;3.40;;
7899;SDS011;3995;50.856;4.404;2023-04-23T05:31:51;5.10;;;3.40;;
7899;SDS011;3995;50.856;4.404;2023-04-23T05:34:18;4.30;;;3.20;;
7899;SDS011;3995;50.856;4.404;2023-04-23T05:36:45;5.87;;;3.60;;
7899;SDS011;3995;50.856;4.404;2023-04-23T05:39:12;7.63;;;3.90;;
7899;SDS011;3995;50.856;4.404;2023-04-23T05:41:40;6.70;;;4.00;;
7899;SDS011;3995;50.856;4.404;2023-04-23T05:44:08;8.43;;;4.00;;
7899;SDS011;3995;50.856;4.404;2023-04-23T05:46:34;6.97;;;3.33;;
7899;SDS011;3995;50.856;4.404;2023-04-23T05:49:02;4.00;;;3.00;;
7899;SDS011;3995;50.856;4.404;2023-04-23T05:51:30;13.13;;;3.50;;
7899;SDS011;3995;50.856;4.404;2023-04-23T05:53:58;6.97;;;3.30;;
7899;SDS011;3995;50.856;4.404;2023-04-23T05:56:25;5.60;;;2.80;;
7899;SDS011;3995;50.856;4.404;2023-04-23T05:58:54;8.53;;;3.47;;
7899;SDS011;3995;50.856;4.404;2023-04-23T06:01:22;5.23;;;2.93;;
7899;SDS011;3995;50.856;4.404;2023-04-23T06:03:48;6.47;;;3.03;;
7899;SDS011;3995;50.856;4.404;2023-04-23T06:06:16;4.90;;;2.87;;
7899;SDS011;3995;50.856;4.404;2023-04-23T06:08:43;6.50;;;2.87;;
7899;SDS011;3995;50.856;4.404;2023-04-23T06:11:10;7.17;;;3.13;;
7899;SDS011;3995;50.856;4.404;2023-04-23T06:13:38;5.83;;;2.70;;
7899;SDS011;3995;50.856;4.404;2023-04-23T06:16:08;6.07;;;3.40;;
7899;SDS011;3995;50.856;4.404;2023-04-23T06:18:35;5.70;;;2.97;;
7899;SDS011;3995;50.856;4.404;2023-04-23T06:21:03;6.87;;;3.10;;
7899;SDS011;3995;50.856;4.404;2023-04-23T06:23:30;8.90;;;3.00;;
7899;SDS011;3995;50.856;4.404;2023-04-23T06:25:57;9.47;;;3.33;;
7899;SDS011;3995;50.856;4.404;2023-04-23T06:28:25;8.53;;;3.30;;
7899;SDS011;3995;50.856;4.404;2023-04-23T06:30:52;12.33;;;2.70;;
7899;SDS011;3995;50.856;4.404;2023-04-23T06:33:20;5.87;;;2.90;;
7899;SDS011;3995;50.856;4.404;2023-04-23T06:35:48;8.00;;;3.30;;
7899;SDS011;3995;50.856;4.404;2023-04-23T06:38:15;12.80;;;2.90;;
7899;SDS011;3995;50.856;4.404;2023-04-23T06:40:42;5.80;;;2.50;;
7899;SDS011;3995;50.856;4.404;2023-04-23T06:43:10;7.47;;;3.13;;
7899;SDS011;3995;50.856;4.404;2023-04-23T06:45:38;8.43;;;2.90;;
7899;SDS011;3995;50.856;4.404;2023-04-23T06:48:05;6.77;;;3.23;;
7899;SDS011;3995;50.856;4.404;2023-04-23T06:50:34;8.97;;;2.70;;
7899;SDS011;3995;50.856;4.404;2023-04-23T06:53:01;11.00;;;2.80;;
7899;SDS011;3995;50.856;4.404;2023-04-23T06:55:28;4.70;;;2.40;;
7899;SDS011;3995;50.856;4.404;2023-04-23T06:57:55;7.73;;;2.90;;
7899;SDS011;3995;50.856;4.404;2023-04-23T07:00:22;9.90;;;2.83;;
7899;SDS011;3995;50.856;4.404;2023-04-23T07:02:50;8.40;;;2.80;;
7899;SDS011;3995;50.856;4.404;2023-04-23T07:05:17;6.30;;;2.47;;
7899;SDS011;3995;50.856;4.404;2023-04-23T07:07:46;8.93;;;3.40;;
7899;SDS011;3995;50.856;4.404;2023-04-23T07:10:13;8.90;;;2.70;;
7899;SDS011;3995;50.856;4.404;2023-04-23T07:12:41;11.63;;;2.97;;
7899;SDS011;3995;50.856;4.404;2023-04-23T07:15:08;8.20;;;3.03;;
7899;SDS011;3995;50.856;4.404;2023-04-23T07:17:36;5.60;;;2.33;;
7899;SDS011;3995;50.856;4.404;2023-04-23T07:20:04;6.40;;;2.50;;
7899;SDS011;3995;50.856;4.404;2023-04-23T07:22:33;9.63;;;3.10;;
7899;SDS011;3995;50.856;4.404;2023-04-23T07:25:02;6.07;;;3.10;;
7899;SDS011;3995;50.856;4.404;2023-04-23T07:27:29;4.67;;;2.40;;
7899;SDS011;3995;50.856;4.404;2023-04-23T07:29:56;5.97;;;2.63;;
7899;SDS011;3995;50.856;4.404;2023-04-23T07:32:23;6.07;;;3.07;;
7899;SDS011;3995;50.856;4.404;2023-04-23T07:34:52;8.13;;;3.03;;
7899;SDS011;3995;50.856;4.404;2023-04-23T07:37:20;4.70;;;3.03;;
7899;SDS011;3995;50.856;4.404;2023-04-23T07:39:47;7.60;;;3.00;;
7899;SDS011;3995;50.856;4.404;2023-04-23T07:42:15;5.57;;;2.77;;
7899;SDS011;3995;50.856;4.404;2023-04-23T07:44:43;5.87;;;2.80;;
7899;SDS011;3995;50.856;4.404;2023-04-23T07:47:10;7.83;;;2.60;;
7899;SDS011;3995;50.856;4.404;2023-04-23T07:49:37;8.87;;;3.17;;
7899;SDS011;3995;50.856;4.404;2023-04-23T07:52:04;10.77;;;3.10;;
7899;SDS011;3995;50.856;4.404;2023-04-23T07:54:33;8.20;;;3.10;;
7899;SDS011;3995;50.856;4.404;2023-04-23T07:57:00;7.07;;;3.10;;
7899;SDS011;3995;50.856;4.404;2023-04-23T07:59:29;5.90;;;2.60;;
7899;SDS011;3995;50.856;4.404;2023-04-23T08:01:56;6.70;;;2.90;;
7899;SDS011;3995;50.856;4.404;2023-04-23T08:04:23;4.90;;;3.00;;
7899;SDS011;3995;50.856;4.404;2023-04-23T08:06:50;5.17;;;2.30;;
7899;SDS011;3995;50.856;4.404;2023-04-23T08:09:17;10.17;;;2.77;;
7899;SDS011;3995;50.856;4.404;2023-04-23T08:11:44;6.97;;;2.60;;
7899;SDS011;3995;50.856;4.404;2023-04-23T08:14:12;11.13;;;2.27;;
7899;SDS011;3995;50.856;4.404;2023-04-23T08:16:41;9.30;;;2.63;;
7899;SDS011;3995;50.856;4.404;2023-04-23T08:19:08;4.30;;;2.50;;
7899;SDS011;3995;50.856;4.404;2023-04-23T08:21:35;5.50;;;2.30;;
7899;SDS011;3995;50.856;4.404;2023-04-23T08:24:02;6.93;;;2.30;;
7899;SDS011;3995;50.856;4.404;2023-04-23T08:26:32;4.17;;;2.23;;
7899;SDS011;3995;50.856;4.404;2023-04-23T08:28:59;7.30;;;2.87;;
7899;SDS011;3995;50.856;4.404;2023-04-23T08:31:27;7.57;;;3.03;;
7899;SDS011;3995;50.856;4.404;2023-04-23T08:33:56;8.33;;;2.73;;
7899;SDS011;3995;50.856;4.404;2023-04-23T08:36:23;4.73;;;2.70;;
7899;SDS011;3995;50.856;4.404;2023-04-23T08:38:51;5.50;;;2.20;;
7899;SDS011;3995;50.856;4.404;2023-04-23T08:41:18;6.00;;;2.57;;
7899;SDS011;3995;50.856;4.404;2023-04-23T08:43:49;8.40;;;2.73;;
7899;SDS011;3995;50.856;4.404;2023-04-23T08:46:18;6.50;;;2.40;;
7899;SDS011;3995;50.856;4.404;2023-04-23T08:48:46;6.03;;;3.03;;
7899;SDS011;3995;50.856;4.404;2023-04-23T08:51:20;4.70;;;1.97;;
7899;SDS011;3995;50.856;4.404;2023-04-23T08:53:49;8.83;;;2.80;;
7899;SDS011;3995;50.856;4.404;2023-04-23T08:56:21;8.73;;;2.17;;
7899;SDS011;3995;50.856;4.404;2023-04-23T08:58:50;11.50;;;2.20;;
7899;SDS011;3995;50.856;4.404;2023-04-23T09:01:18;6.67;;;2.90;;
7899;SDS011;3995;50.856;4.404;2023-04-23T09:03:45;6.00;;;2.27;;
7899;SDS011;3995;50.856;4.404;2023-04-23T09:06:13;8.53;;;2.70;;
7899;SDS011;3995;50.856;4.404;2023-04-23T09:08:41;9.13;;;2.40;;
7899;SDS011;3995;50.856;4.404;2023-04-23T09:11:09;7.43;;;2.13;;
7899;SDS011;3995;50.856;4.404;2023-04-23T09:13:36;7.73;;;2.50;;
7899;SDS011;3995;50.856;4.404;2023-04-23T09:16:05;7.27;;;2.40;;
7899;SDS011;3995;50.856;4.404;2023-04-23T09:18:32;9.20;;;2.67;;
7899;SDS011;3995;50.856;4.404;2023-04-23T09:21:00;8.30;;;2.33;;
7899;SDS011;3995;50.856;4.404;2023-04-23T09:23:28;4.73;;;2.23;;
7899;SDS011;3995;50.856;4.404;2023-04-23T09:25:57;7.47;;;2.27;;
7899;SDS011;3995;50.856;4.404;2023-04-23T09:28:33;10.20;;;2.87;;
7899;SDS011;3995;50.856;4.404;2023-04-23T09:31:01;8.10;;;2.53;;
7899;SDS011;3995;50.856;4.404;2023-04-23T09:33:30;8.70;;;2.40;;
7899;SDS011;3995;50.856;4.404;2023-04-23T09:36:03;6.57;;;1.90;;
7899;SDS011;3995;50.856;4.404;2023-04-23T09:38:32;7.50;;;2.40;;
7899;SDS011;3995;50.856;4.404;2023-04-23T09:41:07;6.30;;;2.50;;
7899;SDS011;3995;50.856;4.404;2023-04-23T09:43:46;4.33;;;1.97;;
7899;SDS011;3995;50.856;4.404;2023-04-23T09:46:13;5.30;;;2.60;;
7899;SDS011;3995;50.856;4.404;2023-04-23T09:48:40;4.93;;;2.20;;
7899;SDS011;3995;50.856;4.404;2023-04-23T09:51:07;6.87;;;2.47;;
7899;SDS011;3995;50.856;4.404;2023-04-23T09:53:39;6.53;;;2.27;;
7899;SDS011;3995;50.856;4.404;2023-04-23T09:56:08;5.33;;;1.90;;
7899;SDS011;3995;50.856;4.404;2023-04-23T09:58:36;5.10;;;2.23;;
7899;SDS011;3995;50.856;4.404;2023-04-23T10:01:07;5.33;;;2.10;;
7899;SDS011;3995;50.856;4.404;2023-04-23T10:03:34;7.03;;;2.00;;
7899;SDS011;3995;50.856;4.404;2023-04-23T10:06:01;5.93;;;1.70;;
7899;SDS011;3995;50.856;4.404;2023-04-23T10:08:29;7.37;;;2.07;;
7899;SDS011;3995;50.856;4.404;2023-04-23T10:11:00;9.40;;;2.80;;
7899;SDS011;3995;50.856;4.404;2023-04-23T10:13:29;7.50;;;2.23;;
7899;SDS011;3995;50.856;4.404;2023-04-23T10:15:57;4.70;;;2.00;;
7899;SDS011;3995;50.856;4.404;2023-04-23T10:18:27;5.40;;;1.80;;
7899;SDS011;3995;50.856;4.404;2023-04-23T10:20:58;3.13;;;2.13;;
7899;SDS011;3995;50.856;4.404;2023-04-23T10:23:28;7.17;;;1.87;;
7899;SDS011;3995;50.856;4.404;2023-04-23T10:25:57;5.20;;;1.80;;
7899;SDS011;3995;50.856;4.404;2023-04-23T10:28:27;6.40;;;2.60;;
7899;SDS011;3995;50.856;4.404;2023-04-23T10:30:58;4.87;;;2.10;;
7899;SDS011;3995;50.856;4.404;2023-04-23T10:33:26;5.50;;;1.87;;
7899;SDS011;3995;50.856;4.404;2023-04-23T10:35:56;3.80;;;1.73;;
7899;SDS011;3995;50.856;4.404;2023-04-23T10:38:24;6.70;;;2.33;;
7899;SDS011;3995;50.856;4.404;2023-04-23T10:40:53;6.90;;;1.97;;
7899;SDS011;3995;50.856;4.404;2023-04-23T10:43:22;8.73;;;2.30;;
7899;SDS011;3995;50.856;4.404;2023-04-23T10:45:51;11.57;;;2.40;;
7899;SDS011;3995;50.856;4.404;2023-04-23T10:48:19;7.30;;;2.20;;
7899;SDS011;3995;50.856;4.404;2023-04-23T10:50:46;8.63;;;2.20;;
7899;SDS011;3995;50.856;4.404;2023-04-23T10:53:23;10.67;;;2.83;;
7899;SDS011;3995;50.856;4.404;2023-04-23T10:56:02;6.83;;;2.43;;
7899;SDS011;3995;50.856;4.404;2023-04-23T10:58:46;4.60;;;1.67;;
7899;SDS011;3995;50.856;4.404;2023-04-23T11:01:16;4.63;;;1.50;;
7899;SDS011;3995;50.856;4.404;2023-04-23T11:03:46;10.00;;;2.53;;
7899;SDS011;3995;50.856;4.404;2023-04-23T11:06:13;3.90;;;1.70;;
7899;SDS011;3995;50.856;4.404;2023-04-23T11:08:51;6.90;;;1.80;;
7899;SDS011;3995;50.856;4.404;2023-04-23T11:11:23;8.50;;;2.30;;
7899;SDS011;3995;50.856;4.404;2023-04-23T11:14:09;4.57;;;1.90;;
7899;SDS011;3995;50.856;4.404;2023-04-23T11:16:40;4.17;;;1.50;;
7899;SDS011;3995;50.856;4.404;2023-04-23T11:19:07;5.33;;;2.23;;
7899;SDS011;3995;50.856;4.404;2023-04-23T11:24:22;6.90;;;2.70;;
7899;SDS011;3995;50.856;4.404;2023-04-23T11:26:50;9.70;;;2.63;;
7899;SDS011;3995;50.856;4.404;2023-04-23T11:29:19;4.97;;;1.93;;
7899;SDS011;3995;50.856;4.404;2023-04-23T11:31:50;10.03;;;2.33;;
7899;SDS011;3995;50.856;4.404;2023-04-23T11:34:17;11.83;;;2.20;;
7899;SDS011;3995;50.856;4.404;2023-04-23T11:36:46;5.10;;;1.73;;
7899;SDS011;3995;50.856;4.404;2023-04-23T11:39:14;4.47;;;2.00;;
7899;SDS011;3995;50.856;4.404;2023-04-23T11:41:43;6.70;;;1.70;;
7899;SDS011;3995;50.856;4.404;2023-04-23T11:44:10;3.83;;;2.33;;
7899;SDS011;3995;50.856;4.404;2023-04-23T11:46:37;2.90;;;1.63;;
7899;SDS011;3995;50.856;4.404;2023-04-23T11:49:06;5.83;;;1.90;;
7899;SDS011;3995;50.856;4.404;2023-04-23T11:51:34;8.53;;;2.03;;
7899;SDS011;3995;50.856;4.404;2023-04-23T11:54:07;6.47;;;1.90;;
7899;SDS011;3995;50.856;4.404;2023-04-23T11:56:35;8.63;;;2.20;;
7899;SDS011;3995;50.856;4.404;2023-04-23T11:59:03;3.47;;;1.70;;
7899;SDS011;3995;50.856;4.404;2023-04-23T12:01:40;4.97;;;1.40;;
7899;SDS011;3995;50.856;4.404;2023-04-23T12:04:11;8.70;;;2.40;;
7899;SDS011;3995;50.856;4.404;2023-04-23T12:06:39;7.77;;;2.43;;
7899;SDS011;3995;50.856;4.404;2023-04-23T12:09:07;8.20;;;2.70;;
7899;SDS011;3995;50.856;4.404;2023-04-23T12:11:35;5.57;;;2.03;;
7899;SDS011;3995;50.856;4.404;2023-04-23T12:14:03;5.60;;;2.27;;
7899;SDS011;3995;50.856;4.404;2023-04-23T12:16:33;6.20;;;1.80;;
7899;SDS011;3995;50.856;4.404;2023-04-23T12:19:08;8.17;;;2.47;;
7899;SDS011;3995;50.856;4.404;2023-04-23T12:24:20;6.00;;;1.90;;
7899;SDS011;3995;50.856;4.404;2023-04-23T12:26:48;5.67;;;2.40;;
7899;SDS011;3995;50.856;4.404;2023-04-23T12:29:18;8.43;;;2.50;;
7899;SDS011;3995;50.856;4.404;2023-04-23T12:31:47;6.13;;;2.23;;
7899;SDS011;3995;50.856;4.404;2023-04-23T12:34:14;5.50;;;2.23;;
7899;SDS011;3995;50.856;4.404;2023-04-23T12:36:43;6.07;;;2.40;;
7899;SDS011;3995;50.856;4.404;2023-04-23T12:39:24;7.67;;;2.30;;
7899;SDS011;3995;50.856;4.404;2023-04-23T12:41:53;5.83;;;2.73;;
7899;SDS011;3995;50.856;4.404;2023-04-23T12:44:22;5.77;;;2.10;;
7899;SDS011;3995;50.856;4.404;2023-04-23T12:46:53;5.43;;;2.13;;
7899;SDS011;3995;50.856;4.404;2023-04-23T12:49:20;5.57;;;1.97;;
7899;SDS011;3995;50.856;4.404;2023-04-23T12:51:47;6.00;;;2.40;;
7899;SDS011;3995;50.856;4.404;2023-04-23T12:54:16;5.53;;;1.50;;
7899;SDS011;3995;50.856;4.404;2023-04-23T12:56:46;3.80;;;1.80;;
7899;SDS011;3995;50.856;4.404;2023-04-23T12:59:12;3.73;;;1.83;;
7899;SDS011;3995;50.856;4.404;2023-04-23T13:01:40;2.60;;;1.67;;
7899;SDS011;3995;50.856;4.404;2023-04-23T13:04:08;3.23;;;1.83;;
7899;SDS011;3995;50.856;4.404;2023-04-23T13:06:35;7.40;;;2.00;;
7899;SDS011;3995;50.856;4.404;2023-04-23T13:09:02;2.73;;;1.80;;
7899;SDS011;3995;50.856;4.404;2023-04-23T13:11:29;3.63;;;1.73;;
7899;SDS011;3995;50.856;4.404;2023-04-23T13:13:58;8.33;;;2.70;;
7899;SDS011;3995;50.856;4.404;2023-04-23T13:16:25;3.40;;;1.70;;
7899;SDS011;3995;50.856;4.404;2023-04-23T13:18:53;5.10;;;2.13;;
7899;SDS011;3995;50.856;4.404;2023-04-23T13:21:21;3.60;;;1.40;;
7899;SDS011;3995;50.856;4.404;2023-04-23T13:23:48;6.97;;;2.00;;
7899;SDS011;3995;50.856;4.404;2023-04-23T13:26:15;4.70;;;1.97;;
7899;SDS011;3995;50.856;4.404;2023-04-23T13:28:42;4.20;;;1.90;;
7899;SDS011;3995;50.856;4.404;2023-04-23T13:31:11;2.90;;;1.73;;
7899;SDS011;3995;50.856;4.404;2023-04-23T13:33:39;3.40;;;1.80;;
7899;SDS011;3995;50.856;4.404;2023-04-23T13:36:07;4.03;;;1.77;;
7899;SDS011;3995;50.856;4.404;2023-04-23T13:38:34;4.73;;;2.30;;
7899;SDS011;3995;50.856;4.404;2023-04-23T13:41:02;5.00;;;2.20;;
7899;SDS011;3995;50.856;4.404;2023-04-23T13:43:29;5.00;;;1.43;;
7899;SDS011;3995;50.856;4.404;2023-04-23T13:45:55;3.10;;;1.73;;
7899;SDS011;3995;50.856;4.404;2023-04-23T13:48:26;3.47;;;1.77;;
7899;SDS011;3995;50.856;4.404;2023-04-23T13:50:55;4.17;;;1.33;;
7899;SDS011;3995;50.856;4.404;2023-04-23T13:53:23;5.20;;;2.00;;
7899;SDS011;3995;50.856;4.404;2023-04-23T13:55:50;2.20;;;1.37;;
7899;SDS011;3995;50.856;4.404;2023-04-23T13:58:17;3.90;;;1.60;;
7899;SDS011;3995;50.856;4.404;2023-04-23T14:00:45;2.40;;;1.67;;
7899;SDS011;3995;50.856;4.404;2023-04-23T14:03:12;3.03;;;1.87;;
7899;SDS011;3995;50.856;4.404;2023-04-23T14:05:41;3.10;;;1.70;;
7899;SDS011;3995;50.856;4.404;2023-04-23T14:08:09;4.10;;;1.63;;
7899;SDS011;3995;50.856;4.404;2023-04-23T14:10:37;3.00;;;1.50;;
7899;SDS011;3995;50.856;4.404;2023-04-23T14:13:04;3.67;;;1.53;;
7899;SDS011;3995;50.856;4.404;2023-04-23T14:15:31;5.40;;;1.90;;
7899;SDS011;3995;50.856;4.404;2023-04-23T14:17:59;2.67;;;1.93;;
7899;SDS011;3995;50.856;4.404;2023-04-23T14:20:26;3.93;;;2.03;;
7899;SDS011;3995;50.856;4.404;2023-04-23T14:22:57;3.50;;;1.97;;
7899;SDS011;3995;50.856;4.404;2023-04-23T14:25:29;5.30;;;2.00;;
7899;SDS011;3995;50.856;4.404;2023-04-23T14:28:01;6.00;;;1.73;;
7899;SDS011;3995;50.856;4.404;2023-04-23T14:30:35;4.10;;;1.87;;
7899;SDS011;3995;50.856;4.404;2023-04-23T14:33:02;3.77;;;2.10;;
7899;SDS011;3995;50.856;4.404;2023-04-23T14:35:29;6.67;;;2.67;;
7899;SDS011;3995;50.856;4.404;2023-04-23T14:37:58;2.97;;;2.30;;
7899;SDS011;3995;50.856;4.404;2023-04-23T14:40:25;3.37;;;2.30;;
7899;SDS011;3995;50.856;4.404;2023-04-23T14:42:52;4.77;;;2.00;;
7899;SDS011;3995;50.856;4.404;2023-04-23T14:45:19;3.13;;;1.93;;
7899;SDS011;3995;50.856;4.404;2023-04-23T14:47:47;2.97;;;1.80;;
7899;SDS011;3995;50.856;4.404;2023-04-23T14:50:15;2.70;;;1.60;;
7899;SDS011;3995;50.856;4.404;2023-04-23T14:52:46;3.83;;;2.03;;
7899;SDS011;3995;50.856;4.404;2023-04-23T14:55:16;4.10;;;2.20;;
7899;SDS011;3995;50.856;4.404;2023-04-23T14:57:43;3.37;;;1.73;;
7899;SDS011;3995;50.856;4.404;2023-04-23T15:00:11;3.90;;;1.60;;
7899;SDS011;3995;50.856;4.404;2023-04-23T15:02:39;2.17;;;1.50;;
7899;SDS011;3995;50.856;4.404;2023-04-23T15:05:09;6.20;;;2.27;;
7899;SDS011;3995;50.856;4.404;2023-04-23T15:07:37;2.53;;;1.80;;
7899;SDS011;3995;50.856;4.404;2023-04-23T15:10:05;4.20;;;2.03;;
7899;SDS011;3995;50.856;4.404;2023-04-23T15:15:34;3.90;;;1.60;;
7899;SDS011;3995;50.856;4.404;2023-04-23T15:18:03;4.30;;;2.10;;
7899;SDS011;3995;50.856;4.404;2023-04-23T15:20:30;1.87;;;1.50;;
7899;SDS011;3995;50.856;4.404;2023-04-23T15:22:57;4.03;;;2.27;;
7899;SDS011;3995;50.856;4.404;2023-04-23T15:25:24;2.63;;;1.60;;
7899;SDS011;3995;50.856;4.404;2023-04-23T15:27:52;2.73;;;1.70;;
7899;SDS011;3995;50.856;4.404;2023-04-23T15:30:22;2.93;;;1.67;;